Airfield :
LOGIN :

Register | Disclaimer

   EN    FR    IT 

 










Legend :    VFR   Marginal VFR   IFR   Intensive IFR   Very Intensive IFR
Visi :
Ceiling :
>= 8 km
>= 3000ft
5 to 8 km
1000 to 3000 ft
1500m to 5 km
500 to 1000 ft
800 to 1500m
200 to 500 ft
< 800m
< 200 ft
Symbols :   Thunderstorms  Fog  Heavy snow  Heavy precipitations  Wind > 20 kt
SIGMETs :     Misc.  Thunderstorms  Icing  Turbulence  Mountain Waves  Volcanic Ashes







- Airport Elevation : 209 ft
- IATA code : CLY
- Download approach charts


LFKC - Calvi

CURRENT METAR :
  • 171500Z AUTO 10005KT 010V160 CAVOK 29/17 Q1014 NOSIG

EXPIRED METARs :
  • 171430Z AUTO 23005KT 170V310 CAVOK 30/15 Q1014 NOSIG
  • 171400Z AUTO 20005KT 140V260 CAVOK 30/15 Q1015 NOSIG
  • 171330Z AUTO 18006KT 140V230 CAVOK 30/15 Q1015 NOSIG
  • 171300Z AUTO 18006KT 140V250 CAVOK 30/15 Q1015 NOSIG
  • 171230Z AUTO 18008KT 140V230 CAVOK 31/15 Q1015 NOSIG

TAF TAF LFKC
Valid from the 17 at 15:00 until the 18 at 15:00 UTC


171400Z 1715/1815 20004KT CAVOK TX27/1812Z TN17/1803Z
BECMG 1807/1810 36008KT
TEMPO 1801/1806 BKN012
ATIS : +33 4 95 65 82 49
No reported NOTAMs for that airfield.



MET'MAP, your aeronautical weather chart ! - Copyright ORBIFLY December 2007 - Disclaimer

ORBIFLY MET'MAP TEAM :

Programming & Development : Alexandra Zaïnal
Concept & Development : Baudouin d'Aumeries
Co-Development & Prog : Marc-Olivier Méhu
Technical & hardware support : Manuel Goepfert

Contact : metmap@orbifly.com




SOURCES & CREDITS :

   NOAA